Time;durP1;ratioP1;P1;durP2;ratioP2;P2;SDS_P1;SDS_P2;PMS_P1;PMS_P2;Temp;Humidity;BMP_temperature;BMP_pressure;BME280_temperature;BME280_humidity;BME280_pressure;Samples;Min_cycle;Max_cycle;Signal;HPM_P1;HPM_P2
2024/03/04 00:01:26;;;;;;;12.10;9.00;;;;;;;7.80;70.33;95781.66;108793;1271;22483;-72
2024/03/04 00:03:57;;;;;;;11.90;8.30;;;;;;;7.79;70.38;95781.09;108802;1272;22519;-72
2024/03/04 00:06:31;;;;;;;12.70;8.70;;;;;;;7.79;70.46;95783.26;108820;1272;22573;-72
2024/03/04 00:09:04;;;;;;;12.80;8.80;;;;;;;7.80;70.29;95779.80;108831;1270;22514;-73
2024/03/04 00:11:39;;;;;;;10.50;6.90;;;;;;;7.78;69.98;95781.31;108758;1272;22537;-74
2024/03/04 00:14:12;;;;;;;15.40;8.10;;;;;;;7.77;69.92;95779.69;108751;1268;22514;-73
2024/03/04 00:16:48;;;;;;;11.80;8.80;;;;;;;7.71;69.89;95777.63;108794;1272;23848;-73
2024/03/04 00:19:21;;;;;;;14.80;10.30;;;;;;;7.62;69.65;95777.52;108807;1272;22501;-74
2024/03/04 00:21:55;;;;;;;13.90;10.80;;;;;;;7.49;69.69;95776.21;108826;1272;22563;-74
2024/03/04 00:24:29;;;;;;;15.70;10.50;;;;;;;7.36;70.11;95780.86;108901;1269;23890;-73
2024/03/04 00:27:01;;;;;;;14.20;11.00;;;;;;;7.29;70.14;95782.40;108876;1272;22684;-73
2024/03/04 00:29:34;;;;;;;14.10;10.40;;;;;;;7.19;70.18;95782.17;108777;1272;22489;-73
2024/03/04 00:32:10;;;;;;;11.80;8.60;;;;;;;7.07;70.25;95780.52;108719;1266;22613;-73
2024/03/04 00:34:44;;;;;;;14.10;9.10;;;;;;;6.94;70.35;95783.69;108820;1272;22510;-73
2024/03/04 00:37:15;;;;;;;14.20;8.70;;;;;;;6.84;70.38;95786.59;108731;1272;22572;-73
2024/03/04 00:39:54;;;;;;;14.10;10.00;;;;;;;6.76;70.78;95780.29;108810;1272;22508;-73
2024/03/04 00:42:30;;;;;;;14.80;10.20;;;;;;;6.70;70.86;95777.38;108834;1256;22512;-74
2024/03/04 00:45:05;;;;;;;13.00;9.80;;;;;;;6.63;71.06;95779.69;108854;1272;22514;-73
2024/03/04 00:47:37;;;;;;;15.70;11.20;;;;;;;6.56;71.27;95779.14;108931;1272;22507;-73
2024/03/04 00:50:10;;;;;;;17.10;12.30;;;;;;;6.52;71.34;95776.58;108869;1272;22522;-73
2024/03/04 00:52:41;;;;;;;15.60;10.60;;;;;;;6.46;71.55;95778.02;108766;1272;25846;-73
2024/03/04 00:55:12;;;;;;;13.90;10.00;;;;;;;6.39;71.55;95775.61;108833;1272;22519;-73
2024/03/04 00:57:48;;;;;;;14.10;10.30;;;;;;;6.36;71.79;95782.74;108838;1272;22576;-74
2024/03/04 01:00:21;;;;;;;14.20;11.10;;;;;;;6.32;71.94;95783.32;108850;1272;24192;-73
2024/03/04 01:02:57;;;;;;;14.40;10.20;;;;;;;6.28;71.93;95788.13;108763;1272;24216;-73
2024/03/04 01:05:28;;;;;;;14.80;10.90;;;;;;;6.24;72.08;95790.73;108851;1266;25397;-73
2024/03/04 01:07:59;;;;;;;15.60;10.70;;;;;;;6.22;72.33;95787.90;108832;1272;22794;-73
2024/03/04 01:10:32;;;;;;;16.00;10.90;;;;;;;6.22;72.55;95788.70;108889;1272;22538;-73
2024/03/04 01:13:04;;;;;;;11.20;8.50;;;;;;;6.20;72.36;95787.97;108756;1272;23036;-74
2024/03/04 01:15:37;;;;;;;16.10;10.00;;;;;;;6.16;72.38;95783.02;108820;1259;22511;-73
2024/03/04 01:18:10;;;;;;;14.30;9.30;;;;;;;6.14;72.55;95781.92;108794;1272;23834;-73
2024/03/04 01:20:45;;;;;;;14.40;10.00;;;;;;;6.13;72.54;95787.04;108866;1273;22537;-73
2024/03/04 01:23:17;;;;;;;13.70;9.80;;;;;;;6.06;72.68;95781.02;108784;1272;24180;-73
2024/03/04 01:25:48;;;;;;;14.10;9.80;;;;;;;6.02;73.05;95777.02;108804;1272;22551;-73
2024/03/04 01:28:21;;;;;;;14.80;9.90;;;;;;;6.03;72.89;95781.80;108832;1272;23770;-73
2024/03/04 01:30:55;;;;;;;12.20;8.80;;;;;;;6.03;73.07;95776.76;108855;1272;22519;-73
2024/03/04 01:33:29;;;;;;;12.90;9.50;;;;;;;5.97;73.15;95776.31;108803;1266;25920;-73
2024/03/04 01:36:04;;;;;;;14.70;9.90;;;;;;;5.85;73.16;95779.34;108866;1269;24196;-73
2024/03/04 01:38:39;;;;;;;11.20;7.90;;;;;;;5.70;72.70;95780.68;108821;1272;23893;-73
2024/03/04 01:41:20;;;;;;;11.50;8.30;;;;;;;5.52;73.40;95772.00;108841;1266;22519;-73
2024/03/04 01:43:52;;;;;;;14.10;9.40;;;;;;;5.53;73.68;95771.16;108829;1270;24324;-73
2024/03/04 01:46:23;;;;;;;13.70;9.60;;;;;;;5.51;74.11;95770.59;108782;1272;25475;-73
2024/03/04 01:48:58;;;;;;;13.30;9.10;;;;;;;5.50;74.25;95774.27;108854;1269;22628;-74
2024/03/04 01:51:34;;;;;;;10.70;7.10;;;;;;;5.44;74.13;95771.37;108973;1266;22523;-73
2024/03/04 01:54:05;;;;;;;12.30;8.90;;;;;;;5.35;74.10;95773.70;108832;1272;25414;-73
2024/03/04 01:56:40;;;;;;;17.20;10.80;;;;;;;5.35;74.58;95773.87;108864;1272;22515;-73
2024/03/04 01:59:12;;;;;;;13.50;9.20;;;;;;;5.38;74.82;95777.23;108786;1273;24194;-73
2024/03/04 02:01:49;;;;;;;12.50;8.90;;;;;;;5.38;74.99;95778.18;108819;1272;22564;-73
2024/03/04 02:04:24;;;;;;;16.10;10.50;;;;;;;5.33;75.04;95781.38;108817;1274;22504;-73
2024/03/04 02:06:55;;;;;;;15.20;9.70;;;;;;;5.30;75.35;95780.02;108788;1272;22553;-73
2024/03/04 02:09:30;;;;;;;10.70;7.40;;;;;;;5.31;75.44;95776.70;108740;1275;22535;-73
2024/03/04 02:12:05;;;;;;;12.70;7.70;;;;;;;5.33;75.36;95782.06;108784;1272;23421;-73
2024/03/04 02:14:36;;;;;;;10.80;7.30;;;;;;;5.22;74.83;95782.13;108777;1273;24229;-73
2024/03/04 02:17:08;;;;;;;12.00;9.40;;;;;;;5.00;75.05;95780.23;108783;1270;22538;-73
2024/03/04 02:19:39;;;;;;;12.60;8.30;;;;;;;4.98;75.44;95783.87;108789;1274;24159;-73
2024/03/04 02:22:15;;;;;;;12.20;6.70;;;;;;;4.98;75.85;95784.45;108791;1272;22510;-73
2024/03/04 02:24:49;;;;;;;10.20;7.10;;;;;;;5.03;75.95;95781.39;108867;1272;22560;-73
2024/03/04 02:27:21;;;;;;;11.90;8.00;;;;;;;5.01;76.04;95786.02;108797;1273;22924;-73
2024/03/04 02:29:56;;;;;;;10.70;7.20;;;;;;;4.97;75.96;95783.88;108821;1268;22514;-73
2024/03/04 02:32:30;;;;;;;12.20;8.20;;;;;;;4.93;76.00;95787.02;108747;1273;25214;-73
2024/03/04 02:35:04;;;;;;;12.70;8.40;;;;;;;4.93;76.35;95787.60;108752;1272;23673;-73
2024/03/04 02:37:38;;;;;;;15.40;9.40;;;;;;;4.94;76.56;95788.97;108865;1274;24192;-73
2024/03/04 02:40:15;;;;;;;13.10;9.70;;;;;;;4.99;76.67;95790.44;108819;1273;22899;-73
2024/03/04 02:42:47;;;;;;;13.20;9.70;;;;;;;5.02;76.96;95794.00;108781;1266;24926;-74
2024/03/04 02:45:23;;;;;;;12.80;8.80;;;;;;;4.99;76.67;95797.00;108961;1272;22504;-73
2024/03/04 02:47:55;;;;;;;9.40;6.50;;;;;;;4.96;76.77;95797.63;108824;1272;23839;-73
2024/03/04 02:50:26;;;;;;;10.20;7.00;;;;;;;4.93;76.52;95796.52;108868;1273;22532;-73
2024/03/04 02:52:59;;;;;;;11.00;7.30;;;;;;;4.91;76.59;95795.36;108830;1266;22544;-73
2024/03/04 02:55:35;;;;;;;11.30;8.30;;;;;;;4.92;76.71;95798.73;108828;1272;24224;-73
2024/03/04 02:58:11;;;;;;;13.00;8.20;;;;;;;4.90;76.41;95798.41;108764;1266;22546;-73
2024/03/04 03:00:44;;;;;;;11.10;8.40;;;;;;;4.82;76.44;95799.67;108803;1266;22548;-73
2024/03/04 03:03:17;;;;;;;12.80;8.80;;;;;;;4.75;76.57;95793.66;108730;1273;22596;-73
2024/03/04 03:05:51;;;;;;;10.40;5.80;;;;;;;4.75;76.64;95798.28;108818;1266;22518;-73
2024/03/04 03:08:26;;;;;;;7.70;4.90;;;;;;;4.56;75.74;95794.01;108786;1273;22516;-73
2024/03/04 03:10:58;;;;;;;7.80;5.50;;;;;;;4.23;75.80;95796.39;108845;1266;22516;-73
2024/03/04 03:13:29;;;;;;;11.50;7.10;;;;;;;4.04;76.25;95800.24;108869;1273;22529;-73
2024/03/04 03:16:03;;;;;;;10.20;6.50;;;;;;;4.02;77.05;95801.71;108838;1272;23663;-72
2024/03/04 03:18:38;;;;;;;9.50;6.70;;;;;;;4.11;77.52;95800.02;108826;1270;22521;-73
2024/03/04 03:21:12;;;;;;;9.20;6.30;;;;;;;4.10;77.55;95803.43;108833;1272;22560;-73
2024/03/04 03:23:46;;;;;;;9.30;6.50;;;;;;;4.11;77.39;95802.11;108857;1272;25942;-73
2024/03/04 03:26:17;;;;;;;5.90;4.50;;;;;;;3.95;77.18;95803.05;108895;1272;22536;-73
2024/03/04 03:28:50;;;;;;;7.40;4.80;;;;;;;3.93;78.08;95802.84;108847;1269;24058;-73
2024/03/04 03:31:23;;;;;;;6.60;5.20;;;;;;;4.01;78.15;95806.58;108763;1273;22526;-73
2024/03/04 03:33:58;;;;;;;7.80;5.70;;;;;;;4.00;78.16;95801.65;108832;1273;24170;-73
2024/03/04 03:36:29;;;;;;;7.20;5.10;;;;;;;3.99;78.30;95804.27;108790;1270;24433;-73
2024/03/04 03:39:00;;;;;;;7.90;5.70;;;;;;;3.96;78.37;95802.38;108779;1272;22572;-73
2024/03/04 03:41:32;;;;;;;8.00;5.90;;;;;;;4.01;78.72;95801.29;108749;1271;22512;-73
2024/03/04 03:44:06;;;;;;;10.60;7.80;;;;;;;4.09;79.08;95804.67;108710;1272;22718;-73
2024/03/04 03:46:38;;;;;;;7.90;5.80;;;;;;;4.16;79.13;95799.35;108855;1272;22629;-73
2024/03/04 03:49:12;;;;;;;7.90;5.80;;;;;;;4.13;78.64;95798.66;108830;1272;25414;-73
2024/03/04 03:51:46;;;;;;;8.20;5.60;;;;;;;4.05;78.72;95803.08;108833;1272;25437;-73
2024/03/04 03:54:17;;;;;;;8.80;5.10;;;;;;;4.04;78.92;95802.71;108807;1272;22676;-73
2024/03/04 03:56:50;;;;;;;7.90;5.60;;;;;;;4.04;78.95;95801.71;108844;1272;22590;-72
2024/03/04 03:59:24;;;;;;;11.30;6.40;;;;;;;3.99;78.96;95801.28;108865;1272;25483;-73
2024/03/04 04:01:58;;;;;;;7.90;5.90;;;;;;;3.96;79.27;95799.44;108767;1272;22518;-73
2024/03/04 04:04:37;;;;;;;10.30;7.00;;;;;;;4.00;79.35;95800.44;108829;1272;22519;-72
2024/03/04 04:07:16;;;;;;;10.00;5.80;;;;;;;4.01;79.23;95795.73;108866;1272;23581;-73
2024/03/04 04:09:55;;;;;;;7.10;5.10;;;;;;;4.00;79.22;95796.94;108866;1273;22724;-73
2024/03/04 04:12:32;;;;;;;8.60;4.80;;;;;;;4.02;79.26;95801.18;108809;1273;25288;-73
2024/03/04 04:15:06;;;;;;;7.60;4.80;;;;;;;3.90;78.79;95799.98;108848;1272;22539;-73
2024/03/04 04:17:40;;;;;;;7.00;5.00;;;;;;;3.75;78.82;95797.08;108872;1272;22504;-73
2024/03/04 04:20:14;;;;;;;5.80;4.50;;;;;;;3.69;79.26;95795.01;108766;1272;22686;-73
2024/03/04 04:22:48;;;;;;;9.00;5.20;;;;;;;3.69;79.67;95796.69;108785;1272;23796;-73
2024/03/04 04:25:22;;;;;;;8.90;6.50;;;;;;;3.76;79.99;95796.39;108836;1272;22819;-73
2024/03/04 04:27:56;;;;;;;12.00;8.20;;;;;;;3.83;80.06;95794.14;108770;1273;22523;-73
2024/03/04 04:30:29;;;;;;;11.20;8.00;;;;;;;3.91;80.50;95791.96;108811;1272;22661;-74
2024/03/04 04:33:03;;;;;;;9.30;6.70;;;;;;;3.98;80.48;95794.10;108804;1273;22569;-73
2024/03/04 04:35:34;;;;;;;6.00;4.80;;;;;;;4.01;80.29;95796.99;108815;1250;22522;-72
2024/03/04 04:38:05;;;;;;;7.50;5.10;;;;;;;3.86;79.63;95793.83;108851;1269;22525;-73
2024/03/04 04:40:38;;;;;;;8.70;6.00;;;;;;;3.82;80.25;95797.33;108796;1273;22603;-73
2024/03/04 04:43:10;;;;;;;9.90;6.20;;;;;;;3.80;80.34;95795.27;108810;1273;23165;-73
2024/03/04 04:45:49;;;;;;;6.80;4.90;;;;;;;3.84;80.59;95796.19;108806;1273;22518;-72
2024/03/04 04:48:22;;;;;;;6.00;4.40;;;;;;;3.88;80.43;95798.92;108885;1272;22533;-73
2024/03/04 04:50:54;;;;;;;5.50;4.10;;;;;;;3.86;80.47;95799.76;108711;1272;22797;-73
2024/03/04 04:53:27;;;;;;;5.90;3.90;;;;;;;3.81;80.14;95804.24;108681;1272;135603;-73
2024/03/04 04:55:58;;;;;;;5.50;3.90;;;;;;;3.62;79.94;95799.89;108795;1272;24928;-73
2024/03/04 04:58:29;;;;;;;5.30;3.60;;;;;;;3.57;80.55;95798.50;108856;1272;22537;-73
2024/03/04 05:01:05;;;;;;;7.80;4.90;;;;;;;3.54;80.32;95802.41;108765;1270;23765;-73
2024/03/04 05:03:44;;;;;;;6.50;4.50;;;;;;;3.41;80.34;95795.52;108726;1272;22508;-74
2024/03/04 05:06:17;;;;;;;8.90;4.90;;;;;;;3.41;80.92;95796.67;108801;1267;25397;-73
2024/03/04 05:08:51;;;;;;;10.00;6.00;;;;;;;3.51;81.36;95793.85;108853;1270;22512;-73
2024/03/04 05:11:23;;;;;;;11.10;7.30;;;;;;;3.64;81.68;95800.05;108831;1272;24502;-73
2024/03/04 05:13:54;;;;;;;9.80;7.10;;;;;;;3.69;81.46;95797.89;108781;1273;22520;-73
2024/03/04 05:16:26;;;;;;;10.40;6.80;;;;;;;3.66;81.33;95791.79;108899;1263;23798;-73
2024/03/04 05:18:58;;;;;;;10.60;8.00;;;;;;;3.68;81.30;95792.38;108797;1270;22631;-73
2024/03/04 05:21:29;;;;;;;7.40;5.80;;;;;;;3.67;81.19;95799.49;108787;1272;22566;-73
2024/03/04 05:24:05;;;;;;;6.50;4.60;;;;;;;3.50;80.70;95793.53;108833;1270;22553;-73
2024/03/04 05:26:41;;;;;;;5.20;3.90;;;;;;;3.52;81.36;95792.13;108859;1272;22626;-73
2024/03/04 05:29:14;;;;;;;10.40;9.10;;;;;;;3.58;81.24;95794.94;108804;1267;22520;-73
2024/03/04 05:31:57;;;;;;;6.90;5.80;;;;;;;3.60;81.40;95799.09;108809;1272;22868;-73
2024/03/04 05:34:32;;;;;;;8.10;5.80;;;;;;;3.85;81.98;95799.85;108910;1273;22532;-73
2024/03/04 05:37:10;;;;;;;6.90;4.60;;;;;;;4.12;82.08;95799.80;108810;1273;22522;-73
2024/03/04 05:39:46;;;;;;;7.30;5.60;;;;;;;4.34;81.98;95799.36;108797;1273;22556;-73
2024/03/04 05:42:20;;;;;;;8.80;6.20;;;;;;;4.51;81.82;95797.98;108753;1271;22519;-73
2024/03/04 05:44:54;;;;;;;7.50;6.10;;;;;;;4.77;82.11;95797.60;108714;1274;22943;-73
2024/03/04 05:47:25;;;;;;;6.40;5.00;;;;;;;5.13;81.76;95794.33;108814;1272;22540;-73
2024/03/04 05:49:59;;;;;;;5.10;4.10;;;;;;;5.48;81.55;95798.12;108738;1273;22522;-73
2024/03/04 05:52:36;;;;;;;6.40;4.70;;;;;;;5.92;81.55;95798.73;108827;1272;23672;-73
2024/03/04 05:55:08;;;;;;;8.70;5.40;;;;;;;6.56;81.09;95796.84;108849;1270;22508;-73
2024/03/04 05:57:42;;;;;;;8.20;5.20;;;;;;;7.18;80.81;95789.77;108835;1272;22511;-73
2024/03/04 06:00:20;;;;;;;8.20;6.10;;;;;;;7.80;80.19;95786.23;108856;1270;22519;-73
2024/03/04 06:02:54;;;;;;;8.90;6.40;;;;;;;8.21;78.76;95793.38;108750;1272;22531;-73
2024/03/04 06:05:27;;;;;;;8.80;6.70;;;;;;;8.29;78.00;95790.54;108771;1273;22529;-73
2024/03/04 06:08:02;;;;;;;9.20;6.10;;;;;;;8.84;78.39;95790.83;108801;1273;22529;-73
2024/03/04 06:10:36;;;;;;;8.10;5.60;;;;;;;9.52;77.64;95791.75;108783;1273;22543;-73
2024/03/04 06:13:09;;;;;;;9.00;6.10;;;;;;;10.05;76.65;95796.10;108733;1272;22533;-73
2024/03/04 06:15:40;;;;;;;10.00;6.00;;;;;;;10.33;74.93;95799.55;108827;1267;25407;-73
2024/03/04 06:18:12;;;;;;;7.30;5.60;;;;;;;10.43;74.36;95803.52;108818;1269;23531;-73
2024/03/04 06:20:46;;;;;;;7.10;5.60;;;;;;;11.04;74.43;95798.49;108740;1272;25403;-73
2024/03/04 06:23:25;;;;;;;6.80;5.60;;;;;;;11.78;73.72;95801.53;108748;1273;22594;-73
2024/03/04 06:25:56;;;;;;;7.60;6.00;;;;;;;12.32;72.61;95801.39;108798;1273;23250;-73
2024/03/04 06:28:28;;;;;;;7.10;5.70;;;;;;;12.75;71.95;95799.94;108839;1275;22521;-73
2024/03/04 06:31:00;;;;;;;8.50;6.40;;;;;;;13.30;71.19;95802.04;108841;1273;24988;-74
2024/03/04 06:33:31;;;;;;;7.90;5.60;;;;;;;13.89;70.23;95795.48;108747;1273;22524;-74
2024/03/04 06:36:04;;;;;;;7.00;5.30;;;;;;;14.37;68.78;95799.41;108861;1269;22615;-74
2024/03/04 06:38:41;;;;;;;7.70;5.20;;;;;;;14.76;67.69;95803.23;108831;1267;22734;-73
2024/03/04 06:41:15;;;;;;;5.30;4.60;;;;;;;15.45;67.04;95807.98;108859;1267;23774;-74
2024/03/04 06:43:49;;;;;;;6.50;5.10;;;;;;;16.10;66.18;95804.81;108765;1267;24244;-74
2024/03/04 06:46:24;;;;;;;7.90;4.90;;;;;;;16.82;65.23;95804.08;108790;1267;22560;-74
2024/03/04 06:48:55;;;;;;;7.60;4.60;;;;;;;17.50;64.72;95804.48;108753;1267;22526;-74
2024/03/04 06:51:28;;;;;;;5.10;4.60;;;;;;;17.97;63.51;95802.98;108781;1270;22609;-75
2024/03/04 06:53:59;;;;;;;6.40;4.40;;;;;;;18.69;62.64;95810.45;108762;1271;24244;-75
2024/03/04 06:56:34;;;;;;;5.10;4.50;;;;;;;19.31;61.33;95813.64;108776;1273;25386;-75
2024/03/04 06:59:10;;;;;;;5.50;4.40;;;;;;;19.88;59.95;95809.28;108808;1266;22596;-75
2024/03/04 07:01:44;;;;;;;5.80;4.40;;;;;;;19.70;57.56;95813.94;108850;1273;25273;-75
2024/03/04 07:04:18;;;;;;;6.30;4.80;;;;;;;19.72;57.79;95815.16;108726;1271;22523;-75
2024/03/04 07:06:54;;;;;;;7.20;5.00;;;;;;;19.87;56.61;95816.13;108771;1272;22826;-76
2024/03/04 07:09:26;;;;;;;6.80;5.00;;;;;;;20.21;55.90;95817.25;108808;1274;23846;-76
2024/03/04 07:12:00;;;;;;;5.60;4.90;;;;;;;20.95;55.68;95814.02;108770;1274;22627;-76
2024/03/04 07:14:31;;;;;;;6.20;5.00;;;;;;;21.03;54.31;95821.29;108872;1270;22817;-76
2024/03/04 07:17:03;;;;;;;6.40;5.40;;;;;;;20.80;53.10;95830.34;108847;1269;23779;-76
2024/03/04 07:19:37;;;;;;;8.00;5.70;;;;;;;20.08;51.84;95836.23;108897;1267;25299;-76
2024/03/04 07:22:11;;;;;;;7.50;5.80;;;;;;;19.72;52.00;95838.13;108792;1270;24286;-76
2024/03/04 07:24:44;;;;;;;8.40;6.00;;;;;;;20.15;52.06;95833.98;108765;1267;22978;-76
2024/03/04 07:27:20;;;;;;;7.60;6.80;;;;;;;20.86;51.50;95832.06;108857;1267;22458;-76
2024/03/04 07:29:55;;;;;;;7.20;6.10;;;;;;;21.73;51.41;95831.19;108891;1269;25284;-76
2024/03/04 07:32:27;;;;;;;9.10;6.50;;;;;;;22.17;50.41;95830.59;108813;1270;22488;-76
2024/03/04 07:34:58;;;;;;;10.10;7.20;;;;;;;21.85;49.33;95834.41;108808;1270;22528;-76
2024/03/04 07:37:33;;;;;;;9.50;7.20;;;;;;;21.43;48.68;95831.29;108805;1267;25233;-75
2024/03/04 07:40:10;;;;;;;9.90;7.70;;;;;;;20.97;48.90;95835.61;108863;1266;22519;-76
2024/03/04 07:42:44;;;;;;;9.70;7.90;;;;;;;21.89;49.22;95834.44;108883;1270;22518;-77
2024/03/04 07:45:17;;;;;;;10.80;7.50;;;;;;;22.92;48.73;95833.20;108817;1266;22564;-76
2024/03/04 07:47:48;;;;;;;11.10;8.20;;;;;;;23.53;48.10;95831.84;108684;1266;22522;-76
2024/03/04 07:50:22;;;;;;;12.50;8.90;;;;;;;24.31;47.01;95832.38;108860;1269;22560;-76
2024/03/04 07:52:54;;;;;;;13.80;9.40;;;;;;;23.84;45.28;95831.81;108818;1272;24244;-76
2024/03/04 07:55:27;;;;;;;11.30;9.00;;;;;;;23.75;45.43;95831.23;108844;1266;22505;-76
2024/03/04 07:58:03;;;;;;;10.60;7.40;;;;;;;23.72;44.78;95829.14;108885;1272;24899;-76
2024/03/04 08:00:39;;;;;;;8.40;6.80;;;;;;;23.73;44.25;95828.14;108816;1270;23931;-76
2024/03/04 08:03:10;;;;;;;6.00;4.90;;;;;;;23.90;44.22;95829.72;108876;1266;22512;-77
2024/03/04 08:05:45;;;;;;;5.60;4.80;;;;;;;25.00;44.14;95826.61;108764;1270;22621;-76
2024/03/04 08:08:17;;;;;;;5.70;4.80;;;;;;;25.82;43.13;95818.77;108853;1272;22657;-75
2024/03/04 08:10:50;;;;;;;6.00;4.80;;;;;;;26.23;42.26;95819.30;108873;1266;22543;-76
2024/03/04 08:13:24;;;;;;;5.30;4.80;;;;;;;26.77;42.20;95823.65;108829;1269;22543;-75
2024/03/04 08:15:58;;;;;;;9.10;5.40;;;;;;;27.52;41.93;95813.79;108878;1266;22530;-76
2024/03/04 08:18:32;;;;;;;5.70;5.10;;;;;;;27.74;40.95;95816.11;108829;1273;22560;-75
2024/03/04 08:21:05;;;;;;;7.20;5.40;;;;;;;27.78;40.54;95813.48;108893;1273;22627;-75
2024/03/04 08:23:36;;;;;;;8.60;5.60;;;;;;;28.17;39.91;95812.48;108843;1273;22926;-75
2024/03/04 08:26:13;;;;;;;6.60;5.60;;;;;;;28.54;39.90;95821.27;108890;1266;22502;-75
2024/03/04 08:28:47;;;;;;;7.50;5.30;;;;;;;28.46;39.22;95817.36;108881;1266;25249;-74
2024/03/04 08:31:20;;;;;;;5.60;4.90;;;;;;;28.77;38.72;95817.86;108830;1266;25252;-75
2024/03/04 08:33:57;;;;;;;8.00;4.80;;;;;;;28.63;37.86;95820.50;108809;1269;24160;-75
2024/03/04 08:36:28;;;;;;;8.00;4.90;;;;;;;28.71;38.04;95820.98;108675;1273;24186;-74
2024/03/04 08:38:59;;;;;;;6.90;4.60;;;;;;;29.00;37.50;95816.79;108812;1266;22537;-75
2024/03/04 08:41:32;;;;;;;6.80;4.10;;;;;;;28.90;37.13;95819.66;108789;1273;22550;-75
2024/03/04 08:44:06;;;;;;;5.00;4.00;;;;;;;28.30;36.43;95816.73;108733;1272;22541;-75
2024/03/04 08:46:45;;;;;;;4.40;3.90;;;;;;;28.40;36.62;95818.23;108723;1273;24272;-75
2024/03/04 08:49:17;;;;;;;5.30;4.00;;;;;;;28.54;36.35;95817.92;108861;1267;22549;-74
2024/03/04 08:51:50;;;;;;;6.30;4.20;;;;;;;27.67;34.88;95815.45;108804;1273;22557;-74
2024/03/04 08:54:23;;;;;;;5.40;4.30;;;;;;;27.21;35.57;95814.14;108837;1272;22511;-75
2024/03/04 08:56:54;;;;;;;10.00;6.10;;;;;;;26.27;34.55;95813.05;108844;1272;22520;-74
2024/03/04 08:59:27;;;;;;;8.90;5.90;;;;;;;24.56;34.09;95816.10;108841;1270;22581;-74
2024/03/04 09:02:00;;;;;;;8.00;6.00;;;;;;;23.41;35.55;95814.08;108875;1269;22554;-74
2024/03/04 09:04:31;;;;;;;10.60;6.50;;;;;;;22.85;36.64;95808.67;108779;1267;25398;-75
2024/03/04 09:07:03;;;;;;;8.20;5.40;;;;;;;22.15;36.72;95812.73;108806;1268;22513;-74
2024/03/04 09:09:40;;;;;;;6.60;4.50;;;;;;;21.37;37.66;95811.34;108801;1270;25420;-75
2024/03/04 09:12:12;;;;;;;6.50;5.00;;;;;;;20.76;38.29;95808.59;108823;1273;23417;-74
2024/03/04 09:14:48;;;;;;;6.70;3.90;;;;;;;20.59;39.25;95809.05;108807;1274;24337;-74
2024/03/04 09:17:20;;;;;;;8.00;4.80;;;;;;;20.41;39.61;95811.36;108802;1270;22569;-74
2024/03/04 09:19:52;;;;;;;7.10;4.20;;;;;;;20.30;39.90;95814.02;108832;1273;22541;-74
2024/03/04 09:22:28;;;;;;;5.70;3.80;;;;;;;19.83;39.67;95810.58;108828;1272;23664;-73
2024/03/04 09:24:59;;;;;;;6.30;4.00;;;;;;;19.31;39.73;95809.41;108839;1272;22508;-74
2024/03/04 09:27:36;;;;;;;7.70;4.50;;;;;;;19.19;40.27;95807.93;108897;1272;22532;-74
2024/03/04 09:30:13;;;;;;;8.10;4.60;;;;;;;18.94;40.58;95809.04;108940;1270;22675;-74
2024/03/04 09:32:45;;;;;;;7.60;5.60;;;;;;;18.38;40.69;95809.09;108812;1272;22557;-74
2024/03/04 09:35:22;;;;;;;9.50;5.90;;;;;;;17.92;41.43;95815.20;108800;1273;25401;-74
2024/03/04 09:37:57;;;;;;;9.90;7.50;;;;;;;17.62;42.07;95815.98;108768;1273;22558;-74
2024/03/04 09:40:30;;;;;;;8.60;6.30;;;;;;;17.44;43.24;95816.48;108730;1267;23906;-74
2024/03/04 09:43:04;;;;;;;9.40;6.60;;;;;;;17.77;43.79;95817.71;108852;1270;24208;-74
2024/03/04 09:45:41;;;;;;;13.10;8.60;;;;;;;17.86;43.46;95812.89;108892;1266;22537;-74
2024/03/04 09:48:14;;;;;;;12.20;9.00;;;;;;;17.45;43.30;95813.67;108877;1272;22515;-74
2024/03/04 09:50:49;;;;;;;10.40;7.80;;;;;;;16.98;44.36;95813.52;108847;1269;22533;-74
2024/03/04 09:53:22;;;;;;;11.40;8.60;;;;;;;16.73;44.91;95812.30;108858;1272;22535;-74
2024/03/04 09:55:56;;;;;;;11.50;8.30;;;;;;;16.73;45.62;95812.15;108805;1270;24273;-74
2024/03/04 09:58:31;;;;;;;10.60;9.40;;;;;;;16.65;45.85;95808.75;108859;1273;24234;-74
2024/03/04 10:01:04;;;;;;;13.30;10.50;;;;;;;16.70;46.68;95809.23;108836;1270;25257;-73
2024/03/04 10:03:38;;;;;;;13.80;10.60;;;;;;;16.99;47.03;95808.97;108832;1266;22514;-74
2024/03/04 10:06:12;;;;;;;19.50;11.60;;;;;;;17.13;46.83;95814.39;108792;1266;22547;-74
2024/03/04 10:08:46;;;;;;;13.20;9.70;;;;;;;16.95;46.79;95814.73;108813;1272;22565;-74
2024/03/04 10:11:18;;;;;;;11.90;9.90;;;;;;;17.10;47.42;95815.45;108856;1266;25460;-74
2024/03/04 10:13:49;;;;;;;12.00;10.70;;;;;;;17.33;47.26;95813.44;108823;1262;22869;-73
2024/03/04 10:16:23;;;;;;;14.60;11.90;;;;;;;17.35;46.67;95811.48;108800;1266;25422;-74
2024/03/04 10:19:04;;;;;;;13.70;11.80;;;;;;;17.30;47.35;95808.29;108856;1272;24181;-74
2024/03/04 10:21:38;;;;;;;14.70;11.70;;;;;;;17.49;47.80;95807.91;108839;1267;22508;-74
2024/03/04 10:24:20;;;;;;;15.10;12.20;;;;;;;17.67;47.99;95805.27;108922;1272;27855;-73
2024/03/04 10:26:53;;;;;;;12.40;10.50;;;;;;;17.91;48.02;95805.10;108923;1272;23310;-74
2024/03/04 10:29:28;;;;;;;13.20;11.30;;;;;;;18.06;47.74;95805.67;108873;1266;22551;-74
2024/03/04 10:31:59;;;;;;;47.30;15.80;;;;;;;17.90;47.01;95801.96;108933;1266;22535;-74
2024/03/04 10:34:35;;;;;;;16.60;13.60;;;;;;;17.81;47.81;95791.85;108858;1272;22560;-74
2024/03/04 10:37:07;;;;;;;14.10;12.30;;;;;;;17.94;47.81;95795.93;108872;1267;22507;-75
2024/03/04 10:39:41;;;;;;;14.80;12.10;;;;;;;17.56;47.19;95793.00;108850;1266;25236;-74
2024/03/04 10:42:17;;;;;;;15.20;13.50;;;;;;;17.06;48.10;95792.80;108868;1266;32134;-73
2024/03/04 10:44:53;;;;;;;17.30;13.80;;;;;;;17.20;49.03;95792.04;108772;1270;22564;-74
2024/03/04 10:47:27;;;;;;;16.10;14.40;;;;;;;17.32;49.54;95783.02;108773;1272;22523;-74
2024/03/04 10:50:02;;;;;;;16.20;14.00;;;;;;;17.63;50.02;95783.79;108797;1272;24205;-74
2024/03/04 10:52:34;;;;;;;18.30;13.90;;;;;;;17.86;49.53;95782.39;108840;1272;22579;-74
2024/03/04 10:55:09;;;;;;;21.20;15.90;;;;;;;17.81;49.20;95781.75;108741;1272;23357;-73
2024/03/04 10:57:48;;;;;;;19.20;15.80;;;;;;;17.92;49.83;95775.73;108782;1266;22524;-73
2024/03/04 11:00:27;;;;;;;19.50;13.60;;;;;;;18.07;49.52;95769.07;108846;1266;24208;-73
2024/03/04 11:03:16;;;;;;;15.10;13.40;;;;;;;18.21;49.53;95762.63;108813;1272;25565;-74
2024/03/04 11:05:53;;;;;;;10.70;9.50;;;;;;;18.48;49.51;95756.91;108864;1266;22676;-73
2024/03/04 11:08:30;;;;;;;13.70;10.40;;;;;;;18.40;48.29;95758.34;108760;1266;22565;-73
2024/03/04 11:11:09;;;;;;;11.90;10.10;;;;;;;18.01;47.67;95762.95;108915;1272;22522;-73
2024/03/04 11:13:50;;;;;;;15.80;10.90;;;;;;;17.70;47.62;95759.92;108886;1264;22876;-73
2024/03/04 11:16:27;;;;;;;12.40;9.70;;;;;;;17.57;48.39;95756.50;108865;1269;22524;-73
2024/03/04 11:19:10;;;;;;;13.50;11.00;;;;;;;17.26;48.10;95758.91;108861;1268;22695;-73
2024/03/04 11:21:47;;;;;;;11.90;9.30;;;;;;;16.91;48.74;95752.40;108820;1272;22749;-73
2024/03/04 11:24:22;;;;;;;15.80;12.30;;;;;;;16.76;49.07;95759.02;108900;1266;22538;-73
2024/03/04 11:27:00;;;;;;;13.90;11.10;;;;;;;16.68;49.70;95756.39;108822;1273;22625;-73
2024/03/04 11:29:31;;;;;;;13.80;10.80;;;;;;;16.84;49.88;95753.36;108836;1269;22508;-72
2024/03/04 11:32:11;;;;;;;10.80;8.30;;;;;;;16.78;49.18;95752.94;108822;1269;25019;-73
2024/03/04 11:35:09;;;;;;;12.50;9.00;;;;;;;16.62;48.91;95750.00;108806;1272;22523;-73
2024/03/04 11:38:05;;;;;;;9.40;5.70;;;;;;;16.66;49.19;95753.59;108853;1269;22517;-73
2024/03/04 11:40:36;;;;;;;7.60;5.20;;;;;;;16.89;49.67;95753.27;108910;1266;22544;-73
2024/03/04 11:43:09;;;;;;;5.60;2.50;;;;;;;17.18;47.77;95749.13;108884;1267;22540;-73
2024/03/04 11:45:47;;;;;;;12.30;8.20;;;;;;;17.12;46.80;95747.55;108900;1269;25389;-73
2024/03/04 11:48:33;;;;;;;6.80;5.20;;;;;;;17.09;47.31;95731.13;108935;1270;22524;-72
2024/03/04 11:51:06;;;;;;;4.50;2.70;;;;;;;17.22;46.20;95737.52;108876;1272;22511;-73
2024/03/04 11:53:44;;;;;;;4.00;1.90;;;;;;;17.07;43.86;95732.52;108666;1267;23849;-72
2024/03/04 11:56:18;;;;;;;5.00;2.40;;;;;;;16.74;42.84;95727.61;108934;1268;23864;-72